Archival Weather

Tokyo Intl

Tokyo, Japan (RJTT)

Report from: Sunday, March 19, 2023 9:30 AM JST
Current time: Tuesday, July 16, 2024 6:06 PM JST

Current weather – Weather history – Daily summaries
Weather forecast

Temperature9.0°C (48.2°F)
Wind chill6.5°C (43.7°F)
Dew point2.0°C (35.6°F)
Winds 9 kts (4.6 m/s, 10.4 mph) East (80°)
Visibility6.2 mi. (10 km)
Clouds Few clouds 3,000 ft. (914 m)
Altimeter30.09 in.Hg (1019 mB)
Relative humidity62 %
Density altitude-808 ft. (-246 m)
Remarks No significant changes expected in the next two hours
Flight conditions Visual Meteorological Conditions
Raw dataRJTT 190030Z 08009KT 9999 FEW030 09/02 Q1019 NOSIG
An error has occurred. This application may no longer respond until reloaded. Reload 🗙